Time;durP1;ratioP1;P1;durP2;ratioP2;P2;SDS_P1;SDS_P2;PMS_P1;PMS_P2;Temp;Humidity;BMP_temperature;BMP_pressure;BME280_temperature;BME280_humidity;BME280_pressure;Samples;Min_cycle;Max_cycle;Signal;HPM_P1;HPM_P2
2024/02/26 00:00:53;;;;;;;;;;;;;;;26.98;36.87;92265.38;5090907;28;7305;-38
2024/02/26 00:03:19;;;;;;;;;;;;;;;27.00;36.95;92273.81;5070752;28;6851;-56
2024/02/26 00:05:47;;;;;;;;;;;;;;;26.97;36.64;92269.41;5074692;28;7023;-57
2024/02/26 00:08:25;;;;;;;;;;;;;;;26.98;36.55;92262.59;5075304;28;7048;-56
2024/02/26 00:11:00;;;;;;;;;;;;;;;26.96;36.50;92259.69;5074705;28;7313;-56
2024/02/26 00:13:27;;;;;;;;;;;;;;;26.98;36.81;92265.38;5074737;28;8777;-38
2024/02/26 00:15:53;;;;;;;;;;;;;;;26.96;36.82;92262.44;5061850;28;7320;-38
2024/02/26 00:18:19;;;;;;;;;;;;;;;26.97;36.33;92263.19;5066119;28;7465;-38
2024/02/26 00:20:47;;;;;;;;;;;;;;;26.97;36.77;92257.66;5068750;28;7854;-38
2024/02/26 00:23:16;;;;;;;;;;;;;;;26.98;36.44;92259.13;5072414;28;7035;-38
2024/02/26 00:25:47;;;;;;;;;;;;;;;26.98;36.73;92256.34;5089998;28;7188;-38
2024/02/26 00:28:15;;;;;;;;;;;;;;;26.95;36.35;92249.94;5072366;28;7028;-39
2024/02/26 00:30:43;;;;;;;;;;;;;;;26.95;36.29;92263.72;5069448;28;9469;-39
2024/02/26 00:33:12;;;;;;;;;;;;;;;26.97;36.27;92266.66;5089652;28;7277;-38
2024/02/26 00:35:45;;;;;;;;;;;;;;;26.98;37.03;92265.38;5073576;28;7108;-38
2024/02/26 00:38:24;;;;;;;;;;;;;;;26.99;36.24;92268.84;5069430;28;7295;-38
2024/02/26 00:40:51;;;;;;;;;;;;;;;26.98;36.32;92276.41;5077115;28;6925;-38
2024/02/26 00:43:18;;;;;;;;;;;;;;;26.98;36.27;92272.91;5074466;28;9352;-38
2024/02/26 00:45:48;;;;;;;;;;;;;;;26.97;36.41;92263.91;5069084;28;9079;-38
2024/02/26 00:48:15;;;;;;;;;;;;;;;26.99;36.40;92283.38;5055658;28;7041;-38
2024/02/26 00:50:42;;;;;;;;;;;;;;;26.97;36.56;92280.44;5073976;28;9048;-38
2024/02/26 00:53:08;;;;;;;;;;;;;;;26.97;36.53;92280.44;5058178;28;7114;-38
2024/02/26 00:55:36;;;;;;;;;;;;;;;26.99;36.49;92293.69;5084725;28;9218;-38
2024/02/26 00:58:10;;;;;;;;;;;;;;;26.99;36.43;92296.44;5088887;28;9402;-38
2024/02/26 01:00:38;;;;;;;;;;;;;;;26.99;36.60;92304.72;5074199;28;7084;-38
2024/02/26 01:03:06;;;;;;;;;;;;;;;27.00;36.18;92306.16;5063981;28;7020;-38
2024/02/26 01:05:37;;;;;;;;;;;;;;;26.99;36.36;92310.94;5068178;28;8027;-38
2024/02/26 01:08:04;;;;;;;;;;;;;;;26.98;36.35;92315.03;5079862;28;7304;-38
2024/02/26 01:10:30;;;;;;;;;;;;;;;26.97;36.08;92324.59;5067247;28;8676;-38
2024/02/26 01:12:56;;;;;;;;;;;;;;;26.97;36.16;92313.56;5071446;28;7154;-38
2024/02/26 01:15:23;;;;;;;;;;;;;;;26.97;36.20;92319.06;5070325;28;9825;-38
2024/02/26 01:17:52;;;;;;;;;;;;;;;26.93;36.27;92302.19;5065488;28;7104;-38
2024/02/26 01:20:20;;;;;;;;;;;;;;;26.96;36.28;92308.63;5072286;28;7034;-38
2024/02/26 01:22:48;;;;;;;;;;;;;;;26.96;36.32;92314.13;5073093;28;9109;-39
2024/02/26 01:25:27;;;;;;;;;;;;;;;26.96;36.37;92314.88;5069910;28;7221;-38
2024/02/26 01:28:00;;;;;;;;;;;;;;;26.95;36.36;92316.16;5078764;28;7016;-38
2024/02/26 01:30:30;;;;;;;;;;;;;;;26.96;35.97;92311.38;5075766;28;7035;-38
2024/02/26 01:32:59;;;;;;;;;;;;;;;26.96;36.09;92314.88;5072128;28;7041;-38
2024/02/26 01:35:24;;;;;;;;;;;;;;;26.94;36.12;92311.94;5067835;28;9099;-54
2024/02/26 01:37:51;;;;;;;;;;;;;;;26.95;36.54;92316.16;5060463;28;7270;-55
2024/02/26 01:40:19;;;;;;;;;;;;;;;26.95;36.22;92310.63;5084210;28;8920;-55
2024/02/26 01:42:54;;;;;;;;;;;;;;;26.96;36.43;92305.84;5072826;28;9062;-55
2024/02/26 01:45:33;;;;;;;;;;;;;;;26.97;36.18;92296.28;5064394;28;9474;-55
2024/02/26 01:48:26;;;;;;;;;;;;;;;26.95;36.11;92299.59;5069327;28;7084;-55
2024/02/26 01:51:38;;;;;;;;;;;;;;;26.96;36.28;92295.56;5030859;28;9137;-55
2024/02/26 01:54:21;;;;;;;;;;;;;;;26.95;35.84;92294.09;4994769;28;7298;-55
2024/02/26 01:56:50;;;;;;;;;;;;;;;26.95;35.90;92304.41;4992605;28;7236;-54
2024/02/26 01:59:37;;;;;;;;;;;;;;;26.96;36.11;92311.38;4975868;28;9466;-55
2024/02/26 02:02:08;;;;;;;;;;;;;;;26.94;35.74;92300.91;4976077;28;9354;-55
2024/02/26 02:04:36;;;;;;;;;;;;;;;26.94;36.25;92289.88;4976774;28;7028;-55
2024/02/26 02:07:15;;;;;;;;;;;;;;;26.95;35.99;92288.56;4992274;28;8758;-55
2024/02/26 02:09:43;;;;;;;;;;;;;;;26.95;36.15;92287.84;4988098;28;8905;-54
2024/02/26 02:12:11;;;;;;;;;;;;;;;26.91;35.98;92282.72;4976402;28;7022;-55
2024/02/26 02:14:39;;;;;;;;;;;;;;;26.94;35.99;92275.34;4976507;28;7320;-53
2024/02/26 02:17:05;;;;;;;;;;;;;;;26.94;36.07;92275.34;4992091;28;7306;-55
2024/02/26 02:19:41;;;;;;;;;;;;;;;26.93;36.44;92274.63;4992022;28;7127;-54
2024/02/26 02:22:08;;;;;;;;;;;;;;;26.90;36.16;92264.75;4976057;28;7228;-55
2024/02/26 02:24:46;;;;;;;;;;;;;;;26.94;35.82;92262.28;4970793;28;8842;-54
2024/02/26 02:27:23;;;;;;;;;;;;;;;26.94;36.03;92253.28;4991899;28;7041;-55
2024/02/26 02:29:49;;;;;;;;;;;;;;;26.89;36.01;92252.97;4998470;28;8789;-55
2024/02/26 02:32:17;;;;;;;;;;;;;;;26.93;36.31;92247.03;5070867;28;7011;-54
2024/02/26 02:35:03;;;;;;;;;;;;;;;26.95;36.11;92232.69;5060049;28;6914;-55
2024/02/26 02:37:31;;;;;;;;;;;;;;;26.91;36.13;92238.59;5058753;28;8935;-54
2024/02/26 02:40:16;;;;;;;;;;;;;;;26.92;35.92;92238.00;5077540;28;7017;-54
2024/02/26 02:42:43;;;;;;;;;;;;;;;26.94;36.12;92240.22;5086740;28;9246;-55
2024/02/26 02:45:13;;;;;;;;;;;;;;;26.94;36.27;92239.50;5074295;28;7382;-39
2024/02/26 02:47:49;;;;;;;;;;;;;;;26.93;36.10;92252.53;5058754;28;7015;-38
2024/02/26 02:50:25;;;;;;;;;;;;;;;26.89;35.76;92235.69;5076680;28;7368;-38
2024/02/26 02:53:02;;;;;;;;;;;;;;;26.91;36.01;92246.88;5077522;28;7158;-38
2024/02/26 02:55:29;;;;;;;;;;;;;;;26.92;35.76;92244.84;5061382;28;7009;-38
2024/02/26 02:58:05;;;;;;;;;;;;;;;26.89;36.15;92243.97;5056857;28;9153;-38
2024/02/26 03:00:30;;;;;;;;;;;;;;;26.88;36.10;92234.94;5045820;28;9121;-38
2024/02/26 03:02:56;;;;;;;;;;;;;;;26.87;35.99;92235.53;5084156;28;7064;-38
2024/02/26 03:05:22;;;;;;;;;;;;;;;26.89;36.02;92232.91;5054360;28;7018;-38
2024/02/26 03:07:52;;;;;;;;;;;;;;;26.88;36.15;92225.97;5076811;28;7013;-38
2024/02/26 03:10:28;;;;;;;;;;;;;;;26.92;35.96;92237.31;5076537;28;9140;-38
2024/02/26 03:12:54;;;;;;;;;;;;;;;26.91;35.93;92222.03;5069034;28;7866;-38
2024/02/26 03:15:20;;;;;;;;;;;;;;;26.91;36.16;92233.06;5060773;28;7073;-38
2024/02/26 03:17:48;;;;;;;;;;;;;;;26.89;36.17;92224.66;5060450;28;8907;-38
2024/02/26 03:20:18;;;;;;;;;;;;;;;26.86;36.09;92232.03;5068974;28;7184;-38
2024/02/26 03:22:49;;;;;;;;;;;;;;;26.85;35.96;92227.09;5065816;28;7055;-38
2024/02/26 03:25:15;;;;;;;;;;;;;;;26.86;35.80;92228.56;5056611;28;8588;-38
2024/02/26 03:27:44;;;;;;;;;;;;;;;26.88;35.82;92234.25;5079204;28;6973;-38
2024/02/26 03:30:16;;;;;;;;;;;;;;;26.87;35.50;92232.75;5076146;28;7311;-38
2024/02/26 03:32:42;;;;;;;;;;;;;;;26.85;35.78;92225.06;5064408;28;9145;-38
2024/02/26 03:35:11;;;;;;;;;;;;;;;26.88;35.92;92228.72;5067307;28;7495;-38
2024/02/26 03:37:39;;;;;;;;;;;;;;;26.87;36.08;92227.25;5063104;28;7129;-38
2024/02/26 03:40:05;;;;;;;;;;;;;;;26.83;35.84;92216.63;5078504;28;7019;-38
2024/02/26 03:42:34;;;;;;;;;;;;;;;26.85;36.25;92224.34;5072453;28;7012;-38
2024/02/26 03:45:00;;;;;;;;;;;;;;;26.84;36.01;92228.38;5049842;28;7012;-38
2024/02/26 03:47:25;;;;;;;;;;;;;;;26.86;36.24;92226.50;5056508;28;7431;-38
2024/02/26 03:49:52;;;;;;;;;;;;;;;26.86;36.33;92236.84;5070832;28;7380;-38
2024/02/26 03:52:18;;;;;;;;;;;;;;;26.85;36.24;92235.38;5056839;28;8490;-38
2024/02/26 03:54:45;;;;;;;;;;;;;;;26.85;35.59;92238.13;5074595;28;9194;-55
2024/02/26 03:57:11;;;;;;;;;;;;;;;26.87;35.81;92249.31;5074244;28;7350;-55
2024/02/26 03:59:39;;;;;;;;;;;;;;;26.85;35.86;92257.44;5075784;28;7960;-55
2024/02/26 04:02:10;;;;;;;;;;;;;;;26.83;35.89;92257.28;5075858;28;6957;-55
2024/02/26 04:04:38;;;;;;;;;;;;;;;26.86;35.91;92267.88;5074015;28;6948;-55
2024/02/26 04:07:05;;;;;;;;;;;;;;;26.85;35.80;92282.25;5048395;28;9422;-56
2024/02/26 04:09:33;;;;;;;;;;;;;;;26.84;35.79;92278.03;5058701;28;7126;-55
2024/02/26 04:12:01;;;;;;;;;;;;;;;26.83;35.80;92276.59;5073571;28;9719;-55
2024/02/26 04:14:29;;;;;;;;;;;;;;;26.80;35.59;92286.72;5076134;28;7232;-56
2024/02/26 04:17:08;;;;;;;;;;;;;;;26.80;35.84;92288.75;5074634;28;7565;-55
2024/02/26 04:20:20;;;;;;;;;;;;;;;26.84;35.85;92295.31;5086287;28;7069;-54
2024/02/26 04:23:00;;;;;;;;;;;;;;;26.83;35.97;92299.38;4972096;28;8766;-55
2024/02/26 04:25:29;;;;;;;;;;;;;;;26.83;35.78;92293.13;4983140;28;9954;-56
2024/02/26 04:28:12;;;;;;;;;;;;;;;26.83;35.86;92290.38;4971245;28;7123;-55
2024/02/26 04:30:49;;;;;;;;;;;;;;;26.82;36.16;92302.69;4983854;28;7201;-55
2024/02/26 04:33:25;;;;;;;;;;;;;;;26.82;35.79;92302.69;4990685;28;7888;-55
2024/02/26 04:36:21;;;;;;;;;;;;;;;26.82;35.88;92302.69;4980040;28;8979;-56
2024/02/26 04:38:57;;;;;;;;;;;;;;;26.78;35.66;92302.38;4974848;28;7276;-55
2024/02/26 04:41:36;;;;;;;;;;;;;;;26.79;35.71;92303.84;4973620;28;7492;-55
2024/02/26 04:44:33;;;;;;;;;;;;;;;26.83;35.75;92298.66;4994002;28;8620;-56
2024/02/26 04:47:40;;;;;;;;;;;;;;;26.81;35.94;92307.50;4924390;29;7117;-55
2024/02/26 04:50:42;;;;;;;;;;;;;;;26.81;35.80;92304.00;4889471;29;8371;-56
2024/02/26 04:56:36;;;;;;;;;;;;;;;26.80;36.02;92308.06;4927979;29;7239;-56
2024/02/26 04:59:22;;;;;;;;;;;;;;;26.78;35.74;92303.09;4926483;28;7001;-55
2024/02/26 05:01:48;;;;;;;;;;;;;;;26.79;35.54;92296.31;5001231;28;7266;-55
2024/02/26 05:04:14;;;;;;;;;;;;;;;26.76;36.01;92307.72;4993001;28;8695;-40
2024/02/26 05:06:42;;;;;;;;;;;;;;;26.77;35.73;92311.97;4995359;28;7351;-40
2024/02/26 05:09:09;;;;;;;;;;;;;;;26.79;35.82;92315.63;4993160;28;7364;-40
2024/02/26 05:11:36;;;;;;;;;;;;;;;26.77;35.74;92323.69;4991381;28;9042;-40
2024/02/26 05:14:19;;;;;;;;;;;;;;;26.76;36.17;92325.00;4993178;28;7038;-40
2024/02/26 05:16:57;;;;;;;;;;;;;;;26.78;35.96;92319.66;4992699;28;7005;-40
2024/02/26 05:19:23;;;;;;;;;;;;;;;26.79;36.15;92323.16;4992972;28;8925;-40
2024/02/26 05:21:52;;;;;;;;;;;;;;;26.77;35.60;92325.75;4978482;28;6996;-40
2024/02/26 05:24:57;;;;;;;;;;;;;;;26.79;35.72;92332.16;5063300;28;9437;-40
2024/02/26 05:27:24;;;;;;;;;;;;;;;26.79;35.61;92329.41;4966528;28;9901;-39
2024/02/26 05:29:56;;;;;;;;;;;;;;;26.76;35.51;92333.28;4974888;28;9420;-39
2024/02/26 05:32:27;;;;;;;;;;;;;;;26.75;35.54;92333.88;4979413;28;9443;-40
2024/02/26 05:35:14;;;;;;;;;;;;;;;26.73;35.61;92334.41;4953167;28;7105;-39
2024/02/26 05:37:51;;;;;;;;;;;;;;;26.74;36.26;92337.91;4957590;28;9073;-39
2024/02/26 05:40:27;;;;;;;;;;;;;;;26.73;36.00;92350.25;4983076;28;7171;-39
2024/02/26 05:42:52;;;;;;;;;;;;;;;26.75;35.73;92348.38;4957877;28;9275;-40
2024/02/26 05:45:19;;;;;;;;;;;;;;;26.73;35.96;92355.75;4958901;28;7697;-41
2024/02/26 05:47:46;;;;;;;;;;;;;;;26.70;35.48;92346.56;4985518;28;7035;-40
2024/02/26 05:50:12;;;;;;;;;;;;;;;26.72;35.68;92354.25;4981432;28;7299;-42
2024/02/26 05:52:40;;;;;;;;;;;;;;;26.70;36.05;92354.84;4977405;28;9069;-40
2024/02/26 05:55:08;;;;;;;;;;;;;;;26.70;36.16;92351.34;4974105;28;7027;-41
2024/02/26 05:57:35;;;;;;;;;;;;;;;26.71;36.37;92345.25;4982397;28;7224;-41
2024/02/26 06:00:07;;;;;;;;;;;;;;;26.71;36.64;92347.28;4971969;28;7188;-41
2024/02/26 06:02:35;;;;;;;;;;;;;;;26.71;36.54;92341.75;5040817;28;7232;-38
2024/02/26 06:05:01;;;;;;;;;;;;;;;26.70;36.75;92334.81;5054661;28;7012;-38
2024/02/26 06:07:34;;;;;;;;;;;;;;;26.69;37.12;92339.56;5069625;28;7331;-38
2024/02/26 06:10:45;;;;;;;;;;;;;;;26.70;36.49;92334.81;5056182;28;7023;-38
2024/02/26 06:13:12;;;;;;;;;;;;;;;26.68;37.18;92332.63;5016785;28;7407;-38
2024/02/26 06:15:39;;;;;;;;;;;;;;;26.68;36.66;92340.16;5019852;28;7619;-38
2024/02/26 06:18:06;;;;;;;;;;;;;;;26.68;36.76;92331.88;5017481;28;8263;-38
2024/02/26 06:20:32;;;;;;;;;;;;;;;26.65;37.01;92316.47;4992062;28;8506;-38
2024/02/26 06:23:17;;;;;;;;;;;;;;;26.67;36.33;92324.88;4995291;28;9108;-39
2024/02/26 06:25:49;;;;;;;;;;;;;;;26.67;36.14;92333.91;5009996;28;7420;-38
2024/02/26 06:28:24;;;;;;;;;;;;;;;26.67;36.85;92338.69;5009964;28;7040;-38
2024/02/26 06:30:52;;;;;;;;;;;;;;;26.68;35.88;92335.38;4983856;28;7046;-38
2024/02/26 06:33:18;;;;;;;;;;;;;;;26.69;36.78;92338.84;5003120;28;7362;-38
2024/02/26 06:36:04;;;;;;;;;;;;;;;26.67;35.67;92342.19;5004166;28;7026;-38
2024/02/26 06:38:45;;;;;;;;;;;;;;;26.70;35.88;92337.56;5022755;28;7045;-38
2024/02/26 06:41:29;;;;;;;;;;;;;;;26.70;36.57;92345.84;4994936;28;7048;-39
2024/02/26 06:43:56;;;;;;;;;;;;;;;26.68;36.12;92338.13;4990597;28;6990;-38
2024/02/26 06:46:56;;;;;;;;;;;;;;;26.68;36.02;92326.38;4987785;28;9186;-38
2024/02/26 06:49:22;;;;;;;;;;;;;;;26.66;36.00;92324.19;4959718;28;7098;-38
2024/02/26 06:52:22;;;;;;;;;;;;;;;26.69;35.97;92331.31;4989125;28;9104;-38
2024/02/26 06:55:18;;;;;;;;;;;;;;;26.68;36.08;92338.13;4894747;29;7053;-38
2024/02/26 06:57:58;;;;;;;;;;;;;;;26.65;35.98;92347.53;4847893;29;7350;-38
2024/02/26 07:00:37;;;;;;;;;;;;;;;26.65;36.82;92346.78;4839696;29;6997;-38
2024/02/26 07:03:03;;;;;;;;;;;;;;;26.68;36.12;92342.91;4849445;29;7279;-38
2024/02/26 07:05:32;;;;;;;;;;;;;;;26.66;36.10;92346.25;4849961;29;7303;-38
2024/02/26 07:08:00;;;;;;;;;;;;;;;26.65;36.11;92349.56;4837531;29;9398;-38
2024/02/26 07:10:26;;;;;;;;;;;;;;;26.65;36.34;92349.56;4841650;29;7530;-38
2024/02/26 07:12:54;;;;;;;;;;;;;;;26.65;36.68;92344.03;4852069;29;7183;-38
2024/02/26 07:15:21;;;;;;;;;;;;;;;26.65;36.14;92327.50;4846436;29;7041;-38
2024/02/26 07:17:48;;;;;;;;;;;;;;;26.67;35.83;92335.91;4845188;29;8709;-38
2024/02/26 07:20:15;;;;;;;;;;;;;;;26.66;36.27;92337.97;4843186;29;7033;-38
2024/02/26 07:22:42;;;;;;;;;;;;;;;26.64;36.23;92332.25;4847522;29;7445;-38
2024/02/26 07:25:11;;;;;;;;;;;;;;;26.64;36.17;92334.31;4864852;29;7078;-38
2024/02/26 07:27:40;;;;;;;;;;;;;;;26.65;36.50;92322.72;4897635;29;7199;-38
2024/02/26 07:30:17;;;;;;;;;;;;;;;26.67;36.12;92322.13;4949785;28;7055;-38
2024/02/26 07:32:44;;;;;;;;;;;;;;;26.65;36.49;92316.47;4978634;28;7894;-38
2024/02/26 07:35:11;;;;;;;;;;;;;;;26.62;36.37;92312.09;5049290;28;7668;-38
2024/02/26 07:37:51;;;;;;;;;;;;;;;26.66;36.23;92324.19;5075398;28;8985;-38
2024/02/26 07:40:19;;;;;;;;;;;;;;;26.71;36.35;92341.75;5075472;28;9229;-38
2024/02/26 07:42:47;;;;;;;;;;;;;;;26.72;36.51;92334.97;5055144;28;8668;-38
2024/02/26 07:45:15;;;;;;;;;;;;;;;26.72;36.34;92330.19;5078389;28;7193;-38
2024/02/26 07:47:43;;;;;;;;;;;;;;;26.71;36.08;92341.75;5062877;28;7240;-38
2024/02/26 07:50:09;;;;;;;;;;;;;;;26.69;36.26;92327.81;5054717;28;8872;-38
2024/02/26 07:52:36;;;;;;;;;;;;;;;26.72;36.57;92323.94;5075300;28;9836;-38
2024/02/26 07:55:06;;;;;;;;;;;;;;;26.74;36.28;92327.63;5056614;28;8712;-38
2024/02/26 07:57:43;;;;;;;;;;;;;;;26.74;36.37;92330.38;5082401;28;8725;-38
2024/02/26 08:00:10;;;;;;;;;;;;;;;26.75;36.40;92339.38;5059826;28;7018;-38
2024/02/26 08:02:36;;;;;;;;;;;;;;;26.74;36.61;92343.44;5080576;28;7124;-38
2024/02/26 08:05:02;;;;;;;;;;;;;;;26.74;36.44;92344.16;5062142;28;6982;-38
2024/02/26 08:07:28;;;;;;;;;;;;;;;26.73;36.07;92341.97;5061438;28;7151;-38
2024/02/26 08:10:09;;;;;;;;;;;;;;;26.73;35.84;92342.69;5059721;28;7896;-38
2024/02/26 08:16:13;;;;;;;;;;;;;;;26.71;36.27;92322.47;5073181;28;7220;-38
2024/02/26 08:19:10;;;;;;;;;;;;;;;26.71;36.34;92339.00;5063621;28;7028;-38
2024/02/26 08:21:45;;;;;;;;;;;;;;;26.72;36.18;92348.75;5013254;28;9086;-38
2024/02/26 08:24:12;;;;;;;;;;;;;;;26.73;36.33;92341.97;4997219;28;7205;-38
2024/02/26 08:26:37;;;;;;;;;;;;;;;26.74;36.33;92351.69;4993021;28;7506;-40
2024/02/26 08:29:35;;;;;;;;;;;;;;;26.75;36.61;92358.69;4981907;28;8348;-38
2024/02/26 08:32:13;;;;;;;;;;;;;;;26.75;36.30;92342.13;5009772;28;9382;-38
2024/02/26 08:35:00;;;;;;;;;;;;;;;26.77;36.45;92343.00;5003695;28;7236;-38
2024/02/26 08:37:35;;;;;;;;;;;;;;;26.75;36.28;92355.94;5010873;28;7260;-38
2024/02/26 08:40:22;;;;;;;;;;;;;;;26.78;35.73;92371.31;4996544;28;7234;-38
2024/02/26 08:42:59;;;;;;;;;;;;;;;26.75;36.02;92375.22;5011103;28;7100;-38
2024/02/26 08:45:46;;;;;;;;;;;;;;;26.73;36.41;92364.03;5013569;28;7352;-38
2024/02/26 08:48:20;;;;;;;;;;;;;;;26.72;36.69;92368.06;5002498;28;8726;-38
2024/02/26 08:50:46;;;;;;;;;;;;;;;26.70;36.44;92363.13;4993588;28;7204;-38
2024/02/26 08:53:14;;;;;;;;;;;;;;;26.74;36.25;92366.22;5005389;28;7117;-38
2024/02/26 08:55:53;;;;;;;;;;;;;;;26.76;36.49;92371.16;4999982;28;9110;-38
2024/02/26 08:58:29;;;;;;;;;;;;;;;26.76;36.43;92355.34;5015502;28;7073;-38
2024/02/26 09:00:55;;;;;;;;;;;;;;;26.76;36.19;92360.88;5075268;28;9087;-38
2024/02/26 09:03:21;;;;;;;;;;;;;;;26.75;36.53;92359.41;5076127;28;8290;-38
2024/02/26 09:05:50;;;;;;;;;;;;;;;26.76;36.49;92362.88;5080728;28;7204;-38
2024/02/26 09:08:36;;;;;;;;;;;;;;;26.74;36.17;92368.97;5058801;28;7034;-38
2024/02/26 09:11:23;;;;;;;;;;;;;;;26.76;36.53;92371.91;5079999;28;7025;-38
2024/02/26 09:13:50;;;;;;;;;;;;;;;26.77;36.48;92370.59;5087666;28;9734;-38
2024/02/26 09:16:19;;;;;;;;;;;;;;;26.76;36.52;92362.88;5060364;28;7861;-38
2024/02/26 09:18:50;;;;;;;;;;;;;;;26.77;36.28;92373.34;5073417;28;7061;-38
2024/02/26 09:21:30;;;;;;;;;;;;;;;26.74;36.67;92371.00;5053680;28;9473;-38
2024/02/26 09:23:57;;;;;;;;;;;;;;;26.77;36.27;92373.34;5072219;28;7291;-38
2024/02/26 09:26:34;;;;;;;;;;;;;;;26.78;36.54;92374.09;5056537;28;7157;-38
2024/02/26 09:29:26;;;;;;;;;;;;;;;26.77;36.31;92353.34;5071888;28;8747;-38
2024/02/26 09:32:30;;;;;;;;;;;;;;;26.79;36.62;92353.50;5075858;28;7238;-38
2024/02/26 09:34:57;;;;;;;;;;;;;;;26.80;36.34;92360.44;4973862;28;7854;-57
2024/02/26 09:37:36;;;;;;;;;;;;;;;26.83;36.50;92375.88;4963764;28;7313;-58
2024/02/26 09:40:32;;;;;;;;;;;;;;;26.83;36.20;92381.41;4967826;28;7018;-58
2024/02/26 09:43:05;;;;;;;;;;;;;;;26.81;37.05;92384.00;4874133;29;9229;-57
2024/02/26 09:45:33;;;;;;;;;;;;;;;26.79;36.46;92379.06;4876833;29;9327;-57
2024/02/26 09:47:59;;;;;;;;;;;;;;;26.81;36.83;92379.22;4876245;29;9383;-58
2024/02/26 09:50:26;;;;;;;;;;;;;;;26.80;36.85;92377.00;4860117;29;7276;-57
2024/02/26 09:52:53;;;;;;;;;;;;;;;26.83;36.76;92384.16;4881572;29;7271;-57
2024/02/26 09:55:20;;;;;;;;;;;;;;;26.81;36.17;92395.03;4876817;29;7240;-58
2024/02/26 09:57:49;;;;;;;;;;;;;;;26.83;36.55;92393.16;4875600;29;7227;-57
2024/02/26 10:00:19;;;;;;;;;;;;;;;26.82;36.43;92391.69;4876958;29;7119;-58
2024/02/26 10:02:48;;;;;;;;;;;;;;;26.81;36.71;92395.03;4877255;29;7024;-57
2024/02/26 10:05:19;;;;;;;;;;;;;;;26.84;36.76;92388.34;4878116;29;8794;-57
2024/02/26 10:08:18;;;;;;;;;;;;;;;26.83;36.64;92392.44;4879215;28;7057;-57
2024/02/26 10:10:54;;;;;;;;;;;;;;;26.80;36.80;92388.78;4967433;28;7263;-57
2024/02/26 10:14:08;;;;;;;;;;;;;;;26.84;36.67;92391.84;4968084;28;7241;-57
2024/02/26 10:17:18;;;;;;;;;;;;;;;26.83;36.64;92404.19;4959140;28;7059;-57
2024/02/26 10:19:44;;;;;;;;;;;;;;;26.83;36.20;92400.72;4920312;29;7898;-58
2024/02/26 10:22:22;;;;;;;;;;;;;;;26.82;36.48;92393.72;4943534;29;9048;-57
2024/02/26 10:24:58;;;;;;;;;;;;;;;26.86;36.47;92402.34;4950721;28;7030;-58
2024/02/26 10:27:47;;;;;;;;;;;;;;;26.82;36.57;92413.03;4959669;28;9071;-58
2024/02/26 10:30:36;;;;;;;;;;;;;;;26.80;36.53;92401.81;4962426;28;7695;-58
2024/02/26 10:33:38;;;;;;;;;;;;;;;26.82;36.38;92405.47;4953822;29;7290;-58
2024/02/26 10:36:26;;;;;;;;;;;;;;;26.80;36.83;92404.59;4894247;29;7641;-57
2024/02/26 10:39:21;;;;;;;;;;;;;;;26.83;36.79;92404.19;4910600;29;8696;-57
2024/02/26 10:41:57;;;;;;;;;;;;;;;26.83;36.58;92406.22;4911444;29;9079;-58
2024/02/26 10:44:43;;;;;;;;;;;;;;;26.83;36.60;92406.97;4898584;29;9697;-38
2024/02/26 10:47:23;;;;;;;;;;;;;;;26.82;36.43;92413.03;4894601;29;7268;-38
2024/02/26 10:50:39;;;;;;;;;;;;;;;26.84;36.42;92411.16;4899606;29;7253;-38
2024/02/26 10:53:16;;;;;;;;;;;;;;;26.83;36.78;92417.25;4839638;29;8593;-38
2024/02/26 10:56:21;;;;;;;;;;;;;;;26.82;36.56;92416.53;4841737;29;7032;-39
2024/02/26 10:59:07;;;;;;;;;;;;;;;26.85;36.69;92417.41;4916463;29;9065;-38
2024/02/26 11:01:40;;;;;;;;;;;;;;;26.84;36.44;92419.44;4898053;29;7459;-38
2024/02/26 11:04:09;;;;;;;;;;;;;;;26.86;36.65;92413.38;4902910;29;7298;-38
2024/02/26 11:07:07;;;;;;;;;;;;;;;26.84;36.86;92411.16;4903132;29;7202;-38
2024/02/26 11:09:51;;;;;;;;;;;;;;;26.82;36.34;92408.25;4923378;28;7380;-38
2024/02/26 11:12:38;;;;;;;;;;;;;;;26.85;36.70;92411.91;4979998;28;9109;-38
2024/02/26 11:15:12;;;;;;;;;;;;;;;26.83;36.36;92414.50;4985524;28;9672;-38
2024/02/26 11:17:53;;;;;;;;;;;;;;;26.82;36.44;92418.53;5003992;28;7109;-38
2024/02/26 11:20:40;;;;;;;;;;;;;;;26.81;36.40;92414.34;4985959;28;9658;-38
2024/02/26 11:23:24;;;;;;;;;;;;;;;26.82;36.49;92422.03;4999235;28;7220;-38
2024/02/26 11:26:04;;;;;;;;;;;;;;;26.84;36.49;92419.44;5007456;28;7273;-38
2024/02/26 11:28:36;;;;;;;;;;;;;;;26.83;36.57;92408.97;4978675;28;8719;-38
2024/02/26 11:31:04;;;;;;;;;;;;;;;26.83;36.37;92420.00;5076368;28;7023;-38
2024/02/26 11:33:35;;;;;;;;;;;;;;;26.87;36.21;92421.06;5058915;28;8063;-38
2024/02/26 11:36:33;;;;;;;;;;;;;;;26.88;36.02;92427.34;5062400;28;7057;-38
2024/02/26 11:39:08;;;;;;;;;;;;;;;26.86;36.30;92427.16;5072324;28;7039;-38
2024/02/26 11:41:38;;;;;;;;;;;;;;;26.83;36.71;92429.03;5059103;28;8716;-38
2024/02/26 11:44:10;;;;;;;;;;;;;;;26.83;36.13;92428.28;5077873;28;9160;-38
2024/02/26 11:46:43;;;;;;;;;;;;;;;26.84;36.17;92415.94;5077934;28;7891;-38
2024/02/26 11:49:25;;;;;;;;;;;;;;;26.90;36.17;92424.75;5082296;28;6989;-38
2024/02/26 11:51:59;;;;;;;;;;;;;;;26.89;36.46;92424.00;5074256;28;7476;-39
2024/02/26 11:54:58;;;;;;;;;;;;;;;26.89;36.40;92421.25;5086439;28;7024;-41
2024/02/26 11:57:52;;;;;;;;;;;;;;;26.87;36.58;92415.56;5061594;28;8701;-41
2024/02/26 12:00:36;;;;;;;;;;;;;;;26.87;36.54;92420.34;5055282;28;9276;-41
2024/02/26 12:03:07;;;;;;;;;;;;;;;26.87;36.53;92417.59;5057808;28;7270;-41
2024/02/26 12:05:33;;;;;;;;;;;;;;;26.87;36.09;92414.81;5084447;28;9461;-40
2024/02/26 12:08:06;;;;;;;;;;;;;;;26.86;36.39;92413.38;5065180;28;7315;-43
2024/02/26 12:10:35;;;;;;;;;;;;;;;26.86;36.74;92405.09;5056320;28;7037;-40
2024/02/26 12:13:15;;;;;;;;;;;;;;;26.85;36.50;92406.38;5058768;28;9329;-42
2024/02/26 12:15:58;;;;;;;;;;;;;;;26.85;37.09;92411.91;5066146;28;9406;-41
2024/02/26 12:18:49;;;;;;;;;;;;;;;26.86;36.56;92419.59;5092415;28;9075;-41
2024/02/26 12:21:51;;;;;;;;;;;;;;;26.85;36.78;92420.91;5094887;28;8686;-42
2024/02/26 12:24:36;;;;;;;;;;;;;;;26.84;36.55;92415.94;5019991;28;7307;-41
2024/02/26 12:27:23;;;;;;;;;;;;;;;26.85;36.62;92415.41;5016033;28;7257;-41
2024/02/26 12:30:09;;;;;;;;;;;;;;;26.86;36.33;92411.31;5010917;28;7105;-41
2024/02/26 12:32:56;;;;;;;;;;;;;;;26.86;36.54;92407.84;5020210;28;9163;-41
2024/02/26 12:35:26;;;;;;;;;;;;;;;26.86;36.75;92402.34;4999885;28;7302;-41
2024/02/26 12:37:54;;;;;;;;;;;;;;;26.86;36.31;92400.28;5011553;28;6984;-40
2024/02/26 12:40:21;;;;;;;;;;;;;;;26.87;36.38;92406.53;4999497;28;7284;-40
2024/02/26 12:43:00;;;;;;;;;;;;;;;26.85;36.49;92400.88;4990225;28;9806;-41
2024/02/26 12:45:28;;;;;;;;;;;;;;;26.86;36.19;92407.84;4997285;28;7027;-41
2024/02/26 12:48:12;;;;;;;;;;;;;;;26.84;36.44;92402.88;5013090;28;7039;-41
2024/02/26 12:50:50;;;;;;;;;;;;;;;26.86;36.73;92402.34;5004343;28;8148;-40
2024/02/26 12:53:26;;;;;;;;;;;;;;;26.87;36.44;92404.53;5022281;28;7264;-40
2024/02/26 12:55:57;;;;;;;;;;;;;;;26.89;36.26;92401.19;5006245;28;7157;-40
2024/02/26 12:58:27;;;;;;;;;;;;;;;26.88;36.45;92405.25;5018246;28;8167;-41
2024/02/26 13:00:58;;;;;;;;;;;;;;;26.87;36.37;92404.53;5049306;28;8942;-41
2024/02/26 13:03:24;;;;;;;;;;;;;;;26.88;36.39;92411.50;5074518;28;7230;-38
2024/02/26 13:05:59;;;;;;;;;;;;;;;26.88;36.35;92416.31;5056343;28;8288;-38
2024/02/26 13:08:32;;;;;;;;;;;;;;;26.88;36.45;92405.25;5075191;28;8229;-38
2024/02/26 13:11:13;;;;;;;;;;;;;;;26.86;36.53;92405.09;5081549;28;7046;-38
2024/02/26 13:13:42;;;;;;;;;;;;;;;26.87;36.32;92401.03;5075692;28;7657;-38
2024/02/26 13:16:13;;;;;;;;;;;;;;;26.87;36.77;92403.78;5088895;28;7257;-38
2024/02/26 13:18:41;;;;;;;;;;;;;;;26.84;36.44;92405.66;5057908;28;7014;-38
2024/02/26 13:21:12;;;;;;;;;;;;;;;26.87;36.25;92410.03;5056225;28;7029;-39
2024/02/26 13:23:40;;;;;;;;;;;;;;;26.87;36.29;92406.53;5060564;28;7347;-38
2024/02/26 13:26:13;;;;;;;;;;;;;;;26.87;36.57;92409.31;5082140;28;8689;-38
2024/02/26 13:29:28;;;;;;;;;;;;;;;26.89;36.57;92407.44;5056454;28;8073;-38
2024/02/26 13:32:31;;;;;;;;;;;;;;;26.88;36.54;92411.50;4992801;28;7212;-38
2024/02/26 13:35:13;;;;;;;;;;;;;;;26.86;36.42;92397.53;4995457;28;7257;-38
2024/02/26 13:38:10;;;;;;;;;;;;;;;26.86;36.40;92407.84;4976855;28;7072;-38
2024/02/26 13:41:12;;;;;;;;;;;;;;;26.88;36.71;92405.25;4915225;29;9120;-38
2024/02/26 13:43:38;;;;;;;;;;;;;;;26.87;36.44;92399.00;4944986;28;9052;-38
2024/02/26 13:46:04;;;;;;;;;;;;;;;26.85;36.59;92398.13;4953087;28;9746;-38